Soddy-Daisy, TN

11:09 AM EST on November 28, 2014 (GMT -0500)
Windmill Weather and Web Cam | Change Station
CLOSE
Current Station
Personal Weather Station
Location: Lakesite, TN
Elevation: 800 ft
Nearby Weather Stations

Elev 800 ft 35.21 °N, 85.13 °W | Updated 0 second ago

Partly Cloudy
Partly Cloudy
40.7 °F
Feels Like 41 °F
N
3.0
Wind Variable Wind from West
Gusts 5.0 mph

Today
High -- | Low -- °F
--% Chance of Precip.
Yesterday
High -- | Low -- °F
Precip. -- in
7:27 AM 5:28 PM
Waxing Crescent, 41% visible
Pressure 30.46 in
Visibility 10.0 miles
Clouds Few 15000 ft
Windchill 41 °F
Dew Point 26 °F
Humidity 56%
Rainfall 0.00 in
Snow Depth Not available.
UV 3 out of 12
Pollen .10 out of 12
Air Quality Not available.
Flu Activity Not available.
METAR KCHA 281553Z VRB04KT 10SM FEW150 02/M07 A3045 RMK AO2 SLP315 T00221067

More Conditions Fewer Conditions

Pressure 30.46 in
Visibility 10.0 miles
Clouds Few 15000 ft
Windchill 41 °F
Dew Point 26 °F
Humidity 56%
Rainfall 0.00 in
Snow Depth Not available.
UV 3 out of 12
Pollen .10 out of 12
Air Quality Not available.
Flu Activity Not available.
METAR KCHA 281553Z VRB04KT 10SM FEW150 02/M07 A3045 RMK AO2 SLP315 T00221067

More Conditions Fewer Conditions

10-Day Weather Forecast

Almanac

Astronomy

Nov. 28, 2014 Rise Set
Actual Time
Civil Twilight
Nautical Twilight
Astronomical Twilight
Moon
Length of Visible Light
Length of Day
Tomorrow will be .
, % of the Moon is Illuminated

Today's Extremes

State Highs State Lows

Community

WunderPhotos

Upload Photos

1,774,231 photos uploaded!

WunderBlogs® & News

Nearby

Air Quality

  Air Quality AQ Index Pollutant
Not available.

Snow Depth

Station Depth Elevation

Earthquake Activity

City Distance Mag. Time & Date
Minimum magnitude displayed is 2.5.

Coastal Water Temperatures

Place Temperature

Nearby Weather Stations